In Rescue
 
Open Full Screen Window  High Contrast Mode
Wind Gusting 00 knots
08
March 19, 2019 6:46 PM EDT
Weather Information
Wind Direction
  210 °
Wind Speed
  08 kt (9 mph)
Wind Gust
  00 kt (0 mph)
Altimeter
30.27 in
Visibility
10 SM
Temperature
05° C
41° F
Dewpoint
-04° C
25° F
Humidity
53%
1hr Rain Fall
00.00 in.
24hr Rain Fall
00.00 in.
Sky Condition
Clear
VFR

METAR KLDM 192246Z AUTO 21008KT 10SM CLR 05/M04 A3027 RMK AO2 T00451041

FAA Disclaimer: The data displayed is for advisory purposes only and is not to be used for flight planning or operations.